sensor_id;sensor_type;location;lat;lon;timestamp;pressure;altitude;pressure_sealevel;temperature;humidity
20111;BME280;10216;42.658;23.248;2022-09-12T00:00:44;93564.47;;;14.20;100.00
20111;BME280;10216;42.658;23.248;2022-09-12T00:03:09;93556.28;;;14.10;100.00
20111;BME280;10216;42.658;23.248;2022-09-12T00:05:40;93565.13;;;14.01;100.00
20111;BME280;10216;42.658;23.248;2022-09-12T00:08:05;93562.16;;;13.97;100.00
20111;BME280;10216;42.658;23.248;2022-09-12T00:10:30;93563.44;;;13.87;100.00
20111;BME280;10216;42.658;23.248;2022-09-12T00:12:56;93568.97;;;13.84;100.00
20111;BME280;10216;42.658;23.248;2022-09-12T00:15:21;93572.91;;;13.80;100.00
20111;BME280;10216;42.658;23.248;2022-09-12T00:17:47;93575.28;;;13.75;100.00
20111;BME280;10216;42.658;23.248;2022-09-12T00:20:12;93572.88;;;13.73;100.00
20111;BME280;10216;42.658;23.248;2022-09-12T00:22:37;93578.09;;;13.80;100.00
20111;BME280;10216;42.658;23.248;2022-09-12T00:25:03;93574.84;;;13.71;100.00
20111;BME280;10216;42.658;23.248;2022-09-12T00:27:29;93572.69;;;13.75;100.00
20111;BME280;10216;42.658;23.248;2022-09-12T00:29:54;93566.59;;;13.82;100.00
20111;BME280;10216;42.658;23.248;2022-09-12T00:32:20;93574.84;;;13.99;100.00
20111;BME280;10216;42.658;23.248;2022-09-12T00:34:46;93574.09;;;14.05;100.00
20111;BME280;10216;42.658;23.248;2022-09-12T00:37:12;93578.69;;;14.10;100.00
20111;BME280;10216;42.658;23.248;2022-09-12T00:39:37;93579.72;;;14.15;100.00
20111;BME280;10216;42.658;23.248;2022-09-12T00:42:03;93576.91;;;14.10;100.00
20111;BME280;10216;42.658;23.248;2022-09-12T00:47:01;93576.53;;;14.13;99.45
20111;BME280;10216;42.658;23.248;2022-09-12T00:50:13;93580.03;;;14.05;99.45
20111;BME280;10216;42.658;23.248;2022-09-12T00:53:06;93576.56;;;13.92;100.00
20111;BME280;10216;42.658;23.248;2022-09-12T00:55:19;93574.28;;;13.76;100.00
20111;BME280;10216;42.658;23.248;2022-09-12T01:00:31;93564.34;;;13.51;100.00
20111;BME280;10216;42.658;23.248;2022-09-12T01:03:02;93556.72;;;13.43;99.74
20111;BME280;10216;42.658;23.248;2022-09-12T01:05:30;93562.00;;;13.35;100.00
20111;BME280;10216;42.658;23.248;2022-09-12T01:07:59;93563.97;;;13.33;100.00
20111;BME280;10216;42.658;23.248;2022-09-12T01:10:25;93556.56;;;13.23;100.00
20111;BME280;10216;42.658;23.248;2022-09-12T01:12:51;93556.28;;;13.18;100.00
20111;BME280;10216;42.658;23.248;2022-09-12T01:15:16;93554.91;;;13.16;100.00
20111;BME280;10216;42.658;23.248;2022-09-12T01:17:56;93557.66;;;13.14;100.00
20111;BME280;10216;42.658;23.248;2022-09-12T01:23:17;93555.09;;;13.00;100.00
20111;BME280;10216;42.658;23.248;2022-09-12T01:31:12;93557.53;;;12.86;100.00
20111;BME280;10216;42.658;23.248;2022-09-12T01:36:41;93546.78;;;12.83;100.00
20111;BME280;10216;42.658;23.248;2022-09-12T01:42:06;93557.28;;;12.81;100.00
20111;BME280;10216;42.658;23.248;2022-09-12T01:47:11;93553.81;;;12.89;100.00
20111;BME280;10216;42.658;23.248;2022-09-12T01:52:33;93546.50;;;12.93;100.00
20111;BME280;10216;42.658;23.248;2022-09-12T01:55:16;93541.97;;;12.95;99.78
20111;BME280;10216;42.658;23.248;2022-09-12T01:57:47;93533.97;;;12.89;100.00
20111;BME280;10216;42.658;23.248;2022-09-12T02:00:13;93541.03;;;12.81;100.00
20111;BME280;10216;42.658;23.248;2022-09-12T02:03:13;93539.94;;;12.75;100.00
20111;BME280;10216;42.658;23.248;2022-09-12T02:06:07;93543.47;;;12.68;100.00
20111;BME280;10216;42.658;23.248;2022-09-12T02:08:41;93549.13;;;12.63;100.00
20111;BME280;10216;42.658;23.248;2022-09-12T02:11:10;93547.44;;;12.56;100.00
20111;BME280;10216;42.658;23.248;2022-09-12T02:18:44;93545.03;;;12.54;100.00
20111;BME280;10216;42.658;23.248;2022-09-12T02:21:10;93542.59;;;12.46;100.00
20111;BME280;10216;42.658;23.248;2022-09-12T02:23:39;93534.66;;;12.47;100.00
20111;BME280;10216;42.658;23.248;2022-09-12T02:26:11;93537.34;;;12.39;100.00
20111;BME280;10216;42.658;23.248;2022-09-12T02:28:40;93542.94;;;12.43;100.00
20111;BME280;10216;42.658;23.248;2022-09-12T02:31:26;93547.47;;;12.41;100.00
20111;BME280;10216;42.658;23.248;2022-09-12T02:39:26;93544.53;;;12.44;100.00
20111;BME280;10216;42.658;23.248;2022-09-12T02:41:54;93542.16;;;12.42;100.00
20111;BME280;10216;42.658;23.248;2022-09-12T02:44:23;93547.13;;;12.44;100.00
20111;BME280;10216;42.658;23.248;2022-09-12T02:47:03;93537.97;;;12.41;100.00
20111;BME280;10216;42.658;23.248;2022-09-12T02:49:29;93536.72;;;12.52;100.00
20111;BME280;10216;42.658;23.248;2022-09-12T02:51:55;93542.41;;;12.47;100.00
20111;BME280;10216;42.658;23.248;2022-09-12T02:54:20;93552.91;;;12.46;100.00
20111;BME280;10216;42.658;23.248;2022-09-12T02:56:46;93547.38;;;12.49;100.00
20111;BME280;10216;42.658;23.248;2022-09-12T02:59:14;93547.75;;;12.46;100.00
20111;BME280;10216;42.658;23.248;2022-09-12T03:01:51;93546.75;;;12.47;100.00
20111;BME280;10216;42.658;23.248;2022-09-12T03:04:46;93549.69;;;12.44;100.00
20111;BME280;10216;42.658;23.248;2022-09-12T03:18:05;93558.84;;;12.32;100.00
20111;BME280;10216;42.658;23.248;2022-09-12T03:23:40;93564.25;;;12.37;100.00
20111;BME280;10216;42.658;23.248;2022-09-12T03:26:15;93549.97;;;12.34;100.00
20111;BME280;10216;42.658;23.248;2022-09-12T03:28:44;93555.91;;;12.35;100.00
20111;BME280;10216;42.658;23.248;2022-09-12T03:31:17;93567.34;;;12.32;100.00
20111;BME280;10216;42.658;23.248;2022-09-12T03:33:43;93561.78;;;12.29;100.00
20111;BME280;10216;42.658;23.248;2022-09-12T03:36:18;93554.31;;;12.34;100.00
20111;BME280;10216;42.658;23.248;2022-09-12T03:38:45;93554.59;;;12.39;100.00
20111;BME280;10216;42.658;23.248;2022-09-12T03:41:11;93553.88;;;12.45;100.00
20111;BME280;10216;42.658;23.248;2022-09-12T03:43:36;93555.91;;;12.49;100.00
20111;BME280;10216;42.658;23.248;2022-09-12T03:46:02;93547.28;;;12.57;100.00
20111;BME280;10216;42.658;23.248;2022-09-12T03:48:27;93549.50;;;12.60;100.00
20111;BME280;10216;42.658;23.248;2022-09-12T03:50:52;93546.72;;;12.62;100.00
20111;BME280;10216;42.658;23.248;2022-09-12T03:53:18;93551.00;;;12.55;100.00
20111;BME280;10216;42.658;23.248;2022-09-12T03:55:43;93548.78;;;12.66;100.00
20111;BME280;10216;42.658;23.248;2022-09-12T03:58:09;93554.66;;;12.60;100.00
20111;BME280;10216;42.658;23.248;2022-09-12T04:00:34;93558.28;;;12.66;100.00
20111;BME280;10216;42.658;23.248;2022-09-12T04:03:00;93552.41;;;12.72;100.00
20111;BME280;10216;42.658;23.248;2022-09-12T04:05:25;93558.78;;;12.76;100.00
20111;BME280;10216;42.658;23.248;2022-09-12T04:07:50;93560.84;;;12.80;100.00
20111;BME280;10216;42.658;23.248;2022-09-12T04:10:16;93562.31;;;12.89;100.00
20111;BME280;10216;42.658;23.248;2022-09-12T04:12:42;93569.91;;;12.98;100.00
20111;BME280;10216;42.658;23.248;2022-09-12T04:15:10;93564.66;;;13.06;99.97
20111;BME280;10216;42.658;23.248;2022-09-12T04:17:36;93569.97;;;13.19;99.12
20111;BME280;10216;42.658;23.248;2022-09-12T04:20:01;93573.41;;;13.26;97.19
20111;BME280;10216;42.658;23.248;2022-09-12T04:22:27;93571.34;;;13.36;96.83
20111;BME280;10216;42.658;23.248;2022-09-12T04:24:54;93569.00;;;13.41;96.08
20111;BME280;10216;42.658;23.248;2022-09-12T04:27:19;93574.44;;;13.46;95.01
20111;BME280;10216;42.658;23.248;2022-09-12T04:29:44;93580.56;;;13.45;95.79
20111;BME280;10216;42.658;23.248;2022-09-12T04:32:10;93578.97;;;13.44;96.82
20111;BME280;10216;42.658;23.248;2022-09-12T04:34:36;93587.38;;;13.53;96.50
20111;BME280;10216;42.658;23.248;2022-09-12T04:37:01;93584.06;;;13.59;96.43
20111;BME280;10216;42.658;23.248;2022-09-12T04:39:27;93581.16;;;13.47;95.21
20111;BME280;10216;42.658;23.248;2022-09-12T04:41:52;93589.41;;;13.57;95.21
20111;BME280;10216;42.658;23.248;2022-09-12T04:44:18;93597.00;;;13.65;95.77
20111;BME280;10216;42.658;23.248;2022-09-12T04:46:45;93592.34;;;13.76;94.26
20111;BME280;10216;42.658;23.248;2022-09-12T04:49:11;93600.56;;;13.86;93.73
20111;BME280;10216;42.658;23.248;2022-09-12T04:51:39;93597.22;;;13.92;92.92
20111;BME280;10216;42.658;23.248;2022-09-12T04:54:10;93594.16;;;14.03;92.34
20111;BME280;10216;42.658;23.248;2022-09-12T04:56:37;93589.44;;;14.13;91.71
20111;BME280;10216;42.658;23.248;2022-09-12T04:59:03;93588.44;;;14.14;91.53
20111;BME280;10216;42.658;23.248;2022-09-12T05:01:29;93598.31;;;14.32;91.12
20111;BME280;10216;42.658;23.248;2022-09-12T05:03:56;93596.84;;;14.51;89.23
20111;BME280;10216;42.658;23.248;2022-09-12T05:06:33;93603.13;;;14.69;87.75
20111;BME280;10216;42.658;23.248;2022-09-12T05:08:59;93595.03;;;14.85;88.51
20111;BME280;10216;42.658;23.248;2022-09-12T05:11:28;93601.06;;;14.99;87.19
20111;BME280;10216;42.658;23.248;2022-09-12T05:13:55;93603.47;;;15.07;87.13
20111;BME280;10216;42.658;23.248;2022-09-12T05:16:22;93602.31;;;15.10;85.56
20111;BME280;10216;42.658;23.248;2022-09-12T05:18:48;93594.72;;;15.02;87.26
20111;BME280;10216;42.658;23.248;2022-09-12T05:21:16;93589.16;;;15.05;87.13
20111;BME280;10216;42.658;23.248;2022-09-12T05:23:42;93600.66;;;14.96;86.64
20111;BME280;10216;42.658;23.248;2022-09-12T05:26:11;93593.50;;;14.91;85.73
20111;BME280;10216;42.658;23.248;2022-09-12T05:28:37;93585.50;;;14.86;85.55
20111;BME280;10216;42.658;23.248;2022-09-12T05:31:15;93590.28;;;14.82;86.38
20111;BME280;10216;42.658;23.248;2022-09-12T05:33:42;93592.44;;;14.85;85.56
20111;BME280;10216;42.658;23.248;2022-09-12T05:36:13;93593.50;;;14.91;85.32
20111;BME280;10216;42.658;23.248;2022-09-12T05:38:38;93591.28;;;14.88;84.75
20111;BME280;10216;42.658;23.248;2022-09-12T05:43:38;93593.09;;;14.94;85.64
20111;BME280;10216;42.658;23.248;2022-09-12T05:46:06;93591.63;;;15.26;84.60
20111;BME280;10216;42.658;23.248;2022-09-12T05:48:35;93600.09;;;15.74;82.22
20111;BME280;10216;42.658;23.248;2022-09-12T05:51:13;93594.53;;;15.97;80.04
20111;BME280;10216;42.658;23.248;2022-09-12T05:53:40;93588.72;;;16.21;78.42
20111;BME280;10216;42.658;23.248;2022-09-12T05:56:20;93586.13;;;16.21;77.68
20111;BME280;10216;42.658;23.248;2022-09-12T05:58:54;93583.72;;;16.39;77.98
20111;BME280;10216;42.658;23.248;2022-09-12T06:01:20;93582.50;;;16.55;77.08
20111;BME280;10216;42.658;23.248;2022-09-12T06:03:48;93587.28;;;16.52;77.54
20111;BME280;10216;42.658;23.248;2022-09-12T06:06:15;93572.16;;;16.42;75.23
20111;BME280;10216;42.658;23.248;2022-09-12T06:08:43;93578.53;;;16.46;76.28
20111;BME280;10216;42.658;23.248;2022-09-12T06:11:11;93578.69;;;16.58;75.45
20111;BME280;10216;42.658;23.248;2022-09-12T06:13:38;93574.88;;;16.80;75.30
20111;BME280;10216;42.658;23.248;2022-09-12T06:18:50;93574.34;;;16.38;75.03
20111;BME280;10216;42.658;23.248;2022-09-12T06:21:16;93585.34;;;16.14;75.84
20111;BME280;10216;42.658;23.248;2022-09-12T06:23:43;93586.34;;;16.00;77.00
20111;BME280;10216;42.658;23.248;2022-09-12T06:26:10;93593.91;;;16.01;77.48
20111;BME280;10216;42.658;23.248;2022-09-12T06:28:38;93590.94;;;15.98;78.31
20111;BME280;10216;42.658;23.248;2022-09-12T06:31:15;93595.69;;;16.08;78.04
20111;BME280;10216;42.658;23.248;2022-09-12T06:33:44;93592.91;;;16.16;78.03
20111;BME280;10216;42.658;23.248;2022-09-12T06:36:15;93596.50;;;16.15;76.97
20111;BME280;10216;42.658;23.248;2022-09-12T06:38:41;93599.69;;;16.10;77.47
20111;BME280;10216;42.658;23.248;2022-09-12T06:41:09;93600.50;;;16.11;75.56
20111;BME280;10216;42.658;23.248;2022-09-12T06:43:35;93605.28;;;16.27;76.82
20111;BME280;10216;42.658;23.248;2022-09-12T06:46:01;93605.63;;;16.63;76.78
20111;BME280;10216;42.658;23.248;2022-09-12T06:48:27;93611.09;;;17.06;75.51
20111;BME280;10216;42.658;23.248;2022-09-12T06:51:09;93615.00;;;17.22;73.93
20111;BME280;10216;42.658;23.248;2022-09-12T06:53:35;93613.66;;;17.13;75.11
20111;BME280;10216;42.658;23.248;2022-09-12T06:56:09;93609.16;;;17.33;75.13
20111;BME280;10216;42.658;23.248;2022-09-12T06:58:35;93608.53;;;17.38;73.82
20111;BME280;10216;42.658;23.248;2022-09-12T07:01:33;93612.00;;;17.25;74.27
20111;BME280;10216;42.658;23.248;2022-09-12T07:04:00;93619.78;;;17.25;75.05
20111;BME280;10216;42.658;23.248;2022-09-12T07:06:29;93625.22;;;17.10;73.83
20111;BME280;10216;42.658;23.248;2022-09-12T07:09:02;93628.44;;;17.06;74.37
20111;BME280;10216;42.658;23.248;2022-09-12T07:11:32;93618.78;;;17.26;73.81
20111;BME280;10216;42.658;23.248;2022-09-12T07:14:00;93616.25;;;17.58;71.76
20111;BME280;10216;42.658;23.248;2022-09-12T07:16:26;93626.81;;;17.63;70.03
20111;BME280;10216;42.658;23.248;2022-09-12T07:18:54;93627.81;;;17.93;70.02
20111;BME280;10216;42.658;23.248;2022-09-12T07:21:20;93639.72;;;18.07;68.13
20111;BME280;10216;42.658;23.248;2022-09-12T07:23:45;93634.19;;;17.97;69.21
20111;BME280;10216;42.658;23.248;2022-09-12T07:26:13;93634.34;;;18.02;67.70
20111;BME280;10216;42.658;23.248;2022-09-12T07:28:38;93639.00;;;18.18;68.32
20111;BME280;10216;42.658;23.248;2022-09-12T07:31:11;93634.91;;;18.54;67.83
20111;BME280;10216;42.658;23.248;2022-09-12T07:33:38;93643.88;;;19.19;65.70
20111;BME280;10216;42.658;23.248;2022-09-12T07:36:06;93631.53;;;19.15;64.14
20111;BME280;10216;42.658;23.248;2022-09-12T07:38:33;93638.97;;;18.93;64.37
20111;BME280;10216;42.658;23.248;2022-09-12T07:40:58;93633.28;;;18.59;65.27
20111;BME280;10216;42.658;23.248;2022-09-12T07:43:24;93640.09;;;18.60;65.75
20111;BME280;10216;42.658;23.248;2022-09-12T07:45:55;93641.19;;;18.71;64.36
20111;BME280;10216;42.658;23.248;2022-09-12T07:48:21;93631.53;;;19.15;64.41
20111;BME280;10216;42.658;23.248;2022-09-12T07:50:56;93633.13;;;19.45;63.22
20111;BME280;10216;42.658;23.248;2022-09-12T07:53:21;93630.06;;;19.19;63.26
20111;BME280;10216;42.658;23.248;2022-09-12T07:55:54;93637.53;;;19.15;64.15
20111;BME280;10216;42.658;23.248;2022-09-12T07:58:20;93627.25;;;19.20;63.59
20111;BME280;10216;42.658;23.248;2022-09-12T08:00:46;93624.56;;;19.45;61.29
20111;BME280;10216;42.658;23.248;2022-09-12T08:03:11;93632.31;;;19.52;62.38
20111;BME280;10216;42.658;23.248;2022-09-12T08:05:36;93639.69;;;19.36;60.72
20111;BME280;10216;42.658;23.248;2022-09-12T08:08:02;93632.66;;;19.37;62.21
20111;BME280;10216;42.658;23.248;2022-09-12T08:10:27;93633.53;;;19.49;61.57
20111;BME280;10216;42.658;23.248;2022-09-12T08:12:53;93634.94;;;19.63;61.29
20111;BME280;10216;42.658;23.248;2022-09-12T08:15:18;93633.81;;;19.59;61.34
20111;BME280;10216;42.658;23.248;2022-09-12T08:17:44;93639.06;;;20.12;58.73
20111;BME280;10216;42.658;23.248;2022-09-12T08:20:09;93634.81;;;20.76;57.13
20111;BME280;10216;42.658;23.248;2022-09-12T08:22:36;93636.88;;;21.49;56.12
20111;BME280;10216;42.658;23.248;2022-09-12T08:25:01;93640.25;;;21.10;56.85
20111;BME280;10216;42.658;23.248;2022-09-12T08:27:27;93640.38;;;21.55;56.29
20111;BME280;10216;42.658;23.248;2022-09-12T08:29:52;93646.56;;;22.05;54.28
20111;BME280;10216;42.658;23.248;2022-09-12T08:32:19;93641.59;;;21.92;53.67
20111;BME280;10216;42.658;23.248;2022-09-12T08:34:44;93640.94;;;22.13;53.26
20111;BME280;10216;42.658;23.248;2022-09-12T08:37:10;93626.56;;;21.71;53.77
20111;BME280;10216;42.658;23.248;2022-09-12T08:39:36;93636.16;;;21.14;55.81
20111;BME280;10216;42.658;23.248;2022-09-12T08:42:03;93652.38;;;21.04;54.95
20111;BME280;10216;42.658;23.248;2022-09-12T08:47:18;93626.94;;;21.91;53.66
20111;BME280;10216;42.658;23.248;2022-09-12T08:55:21;93626.94;;;21.63;52.08
20111;BME280;10216;42.658;23.248;2022-09-12T08:57:48;93630.13;;;21.13;54.32
20111;BME280;10216;42.658;23.248;2022-09-12T09:00:18;93627.63;;;21.30;54.00
20111;BME280;10216;42.658;23.248;2022-09-12T09:05:52;93628.88;;;22.63;51.56
20111;BME280;10216;42.658;23.248;2022-09-12T09:08:37;93625.19;;;22.58;50.39
20111;BME280;10216;42.658;23.248;2022-09-12T09:11:22;93628.59;;;22.42;50.23
20111;BME280;10216;42.658;23.248;2022-09-12T09:17:00;93630.47;;;22.97;48.42
20111;BME280;10216;42.658;23.248;2022-09-12T09:19:39;93627.06;;;21.96;51.58
20111;BME280;10216;42.658;23.248;2022-09-12T09:22:36;93613.31;;;22.17;48.51
20111;BME280;10216;42.658;23.248;2022-09-12T09:25:05;93623.75;;;22.51;51.10
20111;BME280;10216;42.658;23.248;2022-09-12T09:27:49;93621.84;;;22.63;50.72
20111;BME280;10216;42.658;23.248;2022-09-12T09:30:19;93613.72;;;21.53;51.34
20111;BME280;10216;42.658;23.248;2022-09-12T09:32:54;93618.25;;;20.82;54.05
20111;BME280;10216;42.658;23.248;2022-09-12T09:43:22;93607.13;;;23.83;45.92
20111;BME280;10216;42.658;23.248;2022-09-12T09:45:49;93608.19;;;23.16;47.21
20111;BME280;10216;42.658;23.248;2022-09-12T09:48:21;93613.28;;;24.57;46.18
20111;BME280;10216;42.658;23.248;2022-09-12T09:50:49;93607.91;;;26.03;43.65
20111;BME280;10216;42.658;23.248;2022-09-12T09:56:08;93610.06;;;26.47;42.62
20111;BME280;10216;42.658;23.248;2022-09-12T09:58:35;93608.97;;;26.23;42.40
20111;BME280;10216;42.658;23.248;2022-09-12T10:01:19;93603.94;;;25.18;43.80
20111;BME280;10216;42.658;23.248;2022-09-12T10:03:52;93598.13;;;25.06;44.24
20111;BME280;10216;42.658;23.248;2022-09-12T10:08:45;93612.66;;;27.08;40.96
20111;BME280;10216;42.658;23.248;2022-09-12T10:16:16;93598.75;;;25.28;42.97
20111;BME280;10216;42.658;23.248;2022-09-12T10:18:42;93600.50;;;25.75;42.79
20111;BME280;10216;42.658;23.248;2022-09-12T10:21:38;93593.91;;;24.63;44.21
20111;BME280;10216;42.658;23.248;2022-09-12T10:27:15;93588.16;;;27.72;39.95
20111;BME280;10216;42.658;23.248;2022-09-12T10:29:59;93588.66;;;28.52;39.98
20111;BME280;10216;42.658;23.248;2022-09-12T10:32:40;93591.63;;;28.74;38.30
20111;BME280;10216;42.658;23.248;2022-09-12T10:35:19;93592.25;;;28.66;38.72
20111;BME280;10216;42.658;23.248;2022-09-12T10:37:55;93586.59;;;28.05;38.23
20111;BME280;10216;42.658;23.248;2022-09-12T10:40:24;93593.03;;;27.88;39.49
20111;BME280;10216;42.658;23.248;2022-09-12T10:45:37;93577.16;;;26.39;41.09
20111;BME280;10216;42.658;23.248;2022-09-12T10:50:49;93576.31;;;25.78;44.03
20111;BME280;10216;42.658;23.248;2022-09-12T10:53:26;93584.19;;;27.69;38.95
20111;BME280;10216;42.658;23.248;2022-09-12T10:56:08;93577.09;;;25.89;40.74
20111;BME280;10216;42.658;23.248;2022-09-12T11:10:02;93587.16;;;26.27;40.19
20111;BME280;10216;42.658;23.248;2022-09-12T11:37:52;93580.34;;;29.45;35.46
20111;BME280;10216;42.658;23.248;2022-09-12T11:40:26;93589.53;;;26.49;41.10
20111;BME280;10216;42.658;23.248;2022-09-12T11:42:59;93596.81;;;24.67;44.82
20111;BME280;10216;42.658;23.248;2022-09-12T11:45:35;93589.50;;;23.51;45.88
20111;BME280;10216;42.658;23.248;2022-09-12T11:48:10;93581.75;;;23.61;47.25
20111;BME280;10216;42.658;23.248;2022-09-12T11:50:35;93581.44;;;23.14;45.41
20111;BME280;10216;42.658;23.248;2022-09-12T11:53:16;93588.00;;;22.73;47.11
20111;BME280;10216;42.658;23.248;2022-09-12T11:56:13;93580.00;;;22.30;49.76
20111;BME280;10216;42.658;23.248;2022-09-12T11:58:41;93576.72;;;21.89;49.23
20111;BME280;10216;42.658;23.248;2022-09-12T12:01:14;93567.72;;;21.68;48.09
20111;BME280;10216;42.658;23.248;2022-09-12T12:03:44;93572.94;;;21.52;49.53
20111;BME280;10216;42.658;23.248;2022-09-12T12:06:15;93573.53;;;21.42;49.34
20111;BME280;10216;42.658;23.248;2022-09-12T12:08:46;93568.72;;;21.22;49.68
20111;BME280;10216;42.658;23.248;2022-09-12T12:11:14;93568.34;;;21.30;50.47
20111;BME280;10216;42.658;23.248;2022-09-12T12:13:47;93566.16;;;21.84;49.08
20111;BME280;10216;42.658;23.248;2022-09-12T12:16:36;93563.09;;;21.87;48.85
20111;BME280;10216;42.658;23.248;2022-09-12T12:19:22;93558.69;;;22.04;49.29
20111;BME280;10216;42.658;23.248;2022-09-12T12:21:51;93549.97;;;22.15;48.91
20111;BME280;10216;42.658;23.248;2022-09-12T12:24:24;93557.97;;;22.26;48.40
20111;BME280;10216;42.658;23.248;2022-09-12T12:27:11;93554.00;;;22.23;48.78
20111;BME280;10216;42.658;23.248;2022-09-12T12:29:46;93539.75;;;22.69;49.46
20111;BME280;10216;42.658;23.248;2022-09-12T12:34:42;93547.00;;;22.84;45.41
20111;BME280;10216;42.658;23.248;2022-09-12T12:39:59;93543.31;;;23.23;46.16
20111;BME280;10216;42.658;23.248;2022-09-12T12:47:45;93561.84;;;22.06;48.46
20111;BME280;10216;42.658;23.248;2022-09-12T12:53:17;93546.06;;;21.39;50.22
20111;BME280;10216;42.658;23.248;2022-09-12T12:55:46;93550.56;;;21.16;52.25
20111;BME280;10216;42.658;23.248;2022-09-12T12:58:34;93557.06;;;20.90;51.04
20111;BME280;10216;42.658;23.248;2022-09-12T13:01:10;93560.28;;;22.22;48.07
20111;BME280;10216;42.658;23.248;2022-09-12T13:03:42;93565.00;;;22.42;47.08
20111;BME280;10216;42.658;23.248;2022-09-12T13:06:28;93571.31;;;21.79;49.10
20111;BME280;10216;42.658;23.248;2022-09-12T13:08:58;93557.69;;;21.77;50.00
20111;BME280;10216;42.658;23.248;2022-09-12T13:11:32;93559.22;;;21.45;51.36
20111;BME280;10216;42.658;23.248;2022-09-12T13:14:02;93561.34;;;21.19;51.61
20111;BME280;10216;42.658;23.248;2022-09-12T13:19:01;93555.34;;;20.67;52.30
20111;BME280;10216;42.658;23.248;2022-09-12T13:21:28;93544.50;;;20.75;54.35
20111;BME280;10216;42.658;23.248;2022-09-12T13:24:03;93548.66;;;20.59;53.89
20111;BME280;10216;42.658;23.248;2022-09-12T13:26:39;93546.94;;;20.42;55.27
20111;BME280;10216;42.658;23.248;2022-09-12T13:29:15;93541.91;;;20.75;54.57
20111;BME280;10216;42.658;23.248;2022-09-12T13:31:44;93540.75;;;20.83;53.29
20111;BME280;10216;42.658;23.248;2022-09-12T13:34:15;93532.63;;;20.67;55.24
20111;BME280;10216;42.658;23.248;2022-09-12T13:42:35;93531.25;;;20.77;51.98
20111;BME280;10216;42.658;23.248;2022-09-12T13:47:42;93537.38;;;21.51;50.92
20111;BME280;10216;42.658;23.248;2022-09-12T13:50:17;93542.63;;;21.67;50.33
20111;BME280;10216;42.658;23.248;2022-09-12T13:52:47;93541.38;;;21.25;50.09
20111;BME280;10216;42.658;23.248;2022-09-12T13:55:35;93549.38;;;20.83;49.43
20111;BME280;10216;42.658;23.248;2022-09-12T13:58:14;93550.91;;;20.56;50.72
20111;BME280;10216;42.658;23.248;2022-09-12T14:00:41;93544.31;;;20.65;50.91
20111;BME280;10216;42.658;23.248;2022-09-12T14:06:24;93545.03;;;20.37;51.82
20111;BME280;10216;42.658;23.248;2022-09-12T14:08:50;93543.31;;;20.31;53.08
20111;BME280;10216;42.658;23.248;2022-09-12T14:11:26;93534.69;;;20.19;52.82
20111;BME280;10216;42.658;23.248;2022-09-12T14:13:54;93531.53;;;20.17;51.57
20111;BME280;10216;42.658;23.248;2022-09-12T14:16:21;93531.63;;;20.22;52.33
20111;BME280;10216;42.658;23.248;2022-09-12T14:18:48;93535.16;;;20.16;53.45
20111;BME280;10216;42.658;23.248;2022-09-12T14:23:55;93533.34;;;20.51;51.76
20111;BME280;10216;42.658;23.248;2022-09-12T14:26:22;93533.13;;;20.53;52.16
20111;BME280;10216;42.658;23.248;2022-09-12T14:28:49;93551.00;;;20.26;52.52
20111;BME280;10216;42.658;23.248;2022-09-12T14:31:23;93542.38;;;20.14;53.46
20111;BME280;10216;42.658;23.248;2022-09-12T14:33:55;93533.44;;;20.10;53.73
20111;BME280;10216;42.658;23.248;2022-09-12T14:36:48;93538.28;;;19.83;54.58
20111;BME280;10216;42.658;23.248;2022-09-12T14:39:36;93537.91;;;19.68;54.19
20111;BME280;10216;42.658;23.248;2022-09-12T14:42:10;93528.16;;;19.75;56.92
20111;BME280;10216;42.658;23.248;2022-09-12T14:44:38;93537.38;;;19.77;55.40
20111;BME280;10216;42.658;23.248;2022-09-12T14:47:17;93536.47;;;19.83;54.85
20111;BME280;10216;42.658;23.248;2022-09-12T14:49:47;93535.69;;;19.95;55.64
20111;BME280;10216;42.658;23.248;2022-09-12T14:52:23;93549.38;;;19.90;54.37
20111;BME280;10216;42.658;23.248;2022-09-12T14:55:01;93553.56;;;19.79;55.69
20111;BME280;10216;42.658;23.248;2022-09-12T14:57:38;93551.88;;;19.97;54.86
20111;BME280;10216;42.658;23.248;2022-09-12T15:00:24;93552.72;;;20.09;55.07
20111;BME280;10216;42.658;23.248;2022-09-12T15:02:51;93550.31;;;20.07;55.32
20111;BME280;10216;42.658;23.248;2022-09-12T15:05:22;93548.41;;;20.14;55.22
20111;BME280;10216;42.658;23.248;2022-09-12T15:07:59;93546.47;;;20.10;55.52
20111;BME280;10216;42.658;23.248;2022-09-12T15:10:34;93552.34;;;19.94;55.35
20111;BME280;10216;42.658;23.248;2022-09-12T15:13:11;93542.09;;;19.57;56.27
20111;BME280;10216;42.658;23.248;2022-09-12T15:15:39;93551.81;;;19.50;56.42
20111;BME280;10216;42.658;23.248;2022-09-12T15:18:05;93536.66;;;19.29;57.78
20111;BME280;10216;42.658;23.248;2022-09-12T15:20:32;93547.84;;;18.99;58.66
20111;BME280;10216;42.658;23.248;2022-09-12T15:22:58;93541.72;;;18.76;59.19
20111;BME280;10216;42.658;23.248;2022-09-12T15:25:26;93544.25;;;18.64;59.46
20111;BME280;10216;42.658;23.248;2022-09-12T15:27:52;93544.25;;;18.39;59.24
20111;BME280;10216;42.658;23.248;2022-09-12T15:30:17;93553.06;;;18.38;59.79
20111;BME280;10216;42.658;23.248;2022-09-12T15:32:43;93545.69;;;18.17;60.49
20111;BME280;10216;42.658;23.248;2022-09-12T15:35:21;93554.06;;;18.19;60.53
20111;BME280;10216;42.658;23.248;2022-09-12T15:37:48;93548.72;;;18.14;60.87
20111;BME280;10216;42.658;23.248;2022-09-12T15:40:14;93549.94;;;18.11;60.54
20111;BME280;10216;42.658;23.248;2022-09-12T15:42:39;93544.53;;;18.13;61.39
20111;BME280;10216;42.658;23.248;2022-09-12T15:45:15;93541.06;;;17.94;60.66
20111;BME280;10216;42.658;23.248;2022-09-12T15:47:42;93532.78;;;17.85;62.83